createdAt,value
2022-12-24T00:02:27.059Z,11.27
2022-12-24T00:05:15.115Z,11.21
2022-12-24T00:08:04.559Z,11.01
2022-12-24T00:10:53.402Z,10.97
2022-12-24T00:13:41.399Z,11.00
2022-12-24T00:16:29.461Z,11.06
2022-12-24T00:19:17.429Z,10.94
2022-12-24T00:22:05.342Z,11.01
2022-12-24T00:24:54.707Z,11.09
2022-12-24T00:27:42.640Z,11.04
2022-12-24T00:30:30.697Z,11.07
2022-12-24T00:33:24.255Z,11.11
2022-12-24T00:36:12.740Z,11.22
2022-12-24T00:39:00.764Z,11.26
2022-12-24T00:41:50.037Z,11.16
2022-12-24T00:44:38.005Z,11.29
2022-12-24T00:47:25.948Z,11.28
2022-12-24T00:50:13.863Z,11.30
2022-12-24T00:53:01.822Z,11.34
2022-12-24T00:55:49.739Z,11.30
2022-12-24T00:58:39.086Z,11.17
2022-12-24T01:01:27.345Z,11.13
2022-12-24T01:04:32.916Z,10.94
2022-12-24T01:07:20.921Z,11.23
2022-12-24T01:10:11.440Z,11.13
2022-12-24T01:13:02.054Z,11.05
2022-12-24T01:15:51.679Z,11.06
2022-12-24T01:18:39.672Z,11.02
2022-12-24T01:21:27.782Z,11.03
2022-12-24T01:24:16.672Z,10.88
2022-12-24T01:27:04.742Z,10.90
2022-12-24T01:29:52.707Z,10.77
2022-12-24T01:32:42.086Z,10.79
2022-12-24T01:35:30.058Z,10.85
2022-12-24T01:38:18.006Z,10.92
2022-12-24T01:41:23.500Z,10.92
2022-12-24T01:44:31.207Z,11.07
2022-12-24T01:47:27.165Z,10.96
2022-12-24T01:50:18.538Z,10.88
2022-12-24T01:53:09.444Z,10.74
2022-12-24T01:55:57.707Z,10.72
2022-12-24T01:58:49.231Z,10.67
2022-12-24T02:01:37.921Z,10.56
2022-12-24T02:04:33.489Z,10.54
2022-12-24T02:07:23.063Z,10.63
2022-12-24T02:10:13.340Z,10.76
2022-12-24T02:13:02.335Z,10.69
2022-12-24T02:16:01.891Z,10.70
2022-12-24T02:18:58.869Z,10.68
2022-12-24T02:21:56.022Z,10.69
2022-12-24T02:25:11.750Z,10.66
2022-12-24T02:28:10.861Z,10.78
2022-12-24T02:31:04.239Z,10.93
2022-12-24T02:33:59.787Z,10.95
2022-12-24T02:36:55.266Z,10.94
2022-12-24T02:39:49.066Z,11.02
2022-12-24T02:42:41.250Z,11.11
2022-12-24T02:45:32.148Z,11.10
2022-12-24T02:48:23.555Z,11.07
2022-12-24T02:51:12.641Z,11.01
2022-12-24T02:54:00.609Z,11.01
2022-12-24T02:57:04.279Z,10.95
2022-12-24T03:00:05.874Z,10.87
2022-12-24T03:03:18.052Z,10.92
2022-12-24T03:06:16.585Z,10.82
2022-12-24T03:09:13.066Z,10.90
2022-12-24T03:12:07.393Z,10.85
2022-12-24T03:14:55.865Z,10.88
2022-12-24T03:17:47.346Z,10.88
2022-12-24T03:20:39.313Z,10.70
2022-12-24T03:23:28.930Z,10.67
2022-12-24T03:26:19.466Z,10.83
2022-12-24T03:29:09.072Z,10.90
2022-12-24T03:32:02.095Z,10.91
2022-12-24T03:34:50.157Z,10.96
2022-12-24T03:37:38.148Z,10.96
2022-12-24T03:40:27.410Z,11.00
2022-12-24T03:43:15.374Z,10.94
2022-12-24T03:46:06.797Z,10.96
2022-12-24T03:48:54.838Z,11.01
2022-12-24T03:51:42.947Z,11.02
2022-12-24T03:54:31.175Z,11.09
2022-12-24T03:57:20.484Z,11.09
2022-12-24T04:00:09.838Z,10.91
2022-12-24T04:03:00.885Z,10.84
2022-12-24T04:05:48.943Z,10.89
2022-12-24T04:08:37.692Z,11.00
2022-12-24T04:11:25.852Z,10.84
2022-12-24T04:14:15.185Z,10.92
2022-12-24T04:17:03.204Z,10.81
2022-12-24T04:19:51.213Z,10.65
2022-12-24T04:22:39.215Z,10.68
2022-12-24T04:25:27.182Z,10.54
2022-12-24T04:28:15.837Z,10.56
2022-12-24T04:31:07.810Z,10.57
2022-12-24T04:33:55.846Z,10.66
2022-12-24T04:36:43.802Z,10.66
2022-12-24T04:39:31.758Z,10.72
2022-12-24T04:42:19.725Z,10.82
2022-12-24T04:45:08.971Z,10.81
2022-12-24T04:47:58.324Z,10.86
2022-12-24T04:50:46.286Z,10.92
2022-12-24T04:53:35.199Z,10.84
2022-12-24T04:56:24.937Z,10.88
2022-12-24T04:59:13.141Z,10.83
2022-12-24T05:02:01.218Z,10.88
2022-12-24T05:04:50.639Z,10.85
2022-12-24T05:07:38.587Z,10.83
2022-12-24T05:10:26.597Z,10.74
2022-12-24T05:13:14.545Z,10.81
2022-12-24T05:16:02.571Z,10.82
2022-12-24T05:18:50.864Z,10.76
2022-12-24T05:21:40.189Z,10.70
2022-12-24T05:24:46.000Z,10.85
2022-12-24T05:27:34.003Z,10.82
2022-12-24T05:30:21.991Z,10.80
2022-12-24T05:33:09.935Z,10.63
2022-12-24T05:35:57.870Z,10.68
2022-12-24T05:38:47.116Z,10.60
2022-12-24T05:41:35.055Z,10.38
2022-12-24T05:44:22.985Z,10.49
2022-12-24T05:47:10.924Z,10.56
2022-12-24T05:49:59.546Z,10.51
2022-12-24T05:52:47.722Z,10.61
2022-12-24T05:55:37.040Z,10.56
2022-12-24T05:58:24.981Z,10.64
2022-12-24T06:01:13.731Z,10.60
2022-12-24T06:04:01.686Z,10.71
2022-12-24T06:06:49.645Z,10.50
2022-12-24T06:09:37.583Z,10.57
2022-12-24T06:12:26.885Z,10.57
2022-12-24T06:15:20.340Z,10.52
2022-12-24T06:18:11.525Z,10.58
2022-12-24T06:21:00.186Z,10.60
2022-12-24T06:23:48.641Z,10.65
2022-12-24T06:26:36.607Z,10.54
2022-12-24T06:29:27.452Z,10.59
2022-12-24T06:32:15.559Z,10.49
2022-12-24T06:35:03.564Z,10.51
2022-12-24T06:37:51.515Z,10.51
2022-12-24T06:40:40.182Z,10.58
2022-12-24T06:43:28.208Z,10.63
2022-12-24T06:46:18.806Z,10.49
2022-12-24T06:49:06.836Z,10.61
2022-12-24T06:51:54.749Z,10.64
2022-12-24T06:54:42.719Z,10.63
2022-12-24T06:57:31.726Z,10.62
2022-12-24T07:00:21.723Z,10.66
2022-12-24T07:03:11.719Z,10.61
2022-12-24T07:05:39.697Z,10.69
2022-12-24T07:08:07.377Z,10.77
2022-12-24T07:10:35.042Z,10.66
2022-12-24T07:13:02.705Z,10.77
2022-12-24T07:15:30.468Z,10.71
2022-12-24T07:17:58.137Z,10.73
2022-12-24T07:20:27.176Z,10.77
2022-12-24T07:22:54.863Z,10.61
2022-12-24T07:25:22.527Z,10.71
2022-12-24T07:27:50.215Z,10.81
2022-12-24T07:30:18.321Z,10.71
2022-12-24T07:32:45.990Z,10.66
2022-12-24T07:35:13.655Z,10.70
2022-12-24T07:37:42.648Z,10.68
2022-12-24T07:40:11.231Z,10.77
2022-12-24T07:42:38.881Z,10.73
2022-12-24T07:45:07.845Z,10.71
2022-12-24T07:47:36.025Z,10.66
2022-12-24T07:50:04.243Z,10.73
2022-12-24T07:52:32.165Z,10.63
2022-12-24T07:55:01.673Z,10.70
2022-12-24T07:57:29.284Z,10.69
2022-12-24T07:59:56.975Z,10.76
2022-12-24T08:02:24.861Z,10.73
2022-12-24T08:04:52.755Z,10.73
2022-12-24T08:07:20.392Z,10.89
2022-12-24T08:09:48.062Z,10.75
2022-12-24T08:12:17.042Z,10.77
2022-12-24T08:14:44.637Z,10.74
2022-12-24T08:17:12.332Z,10.76
2022-12-24T08:19:40.010Z,10.71
2022-12-24T08:22:07.752Z,10.70
2022-12-24T08:24:35.449Z,10.77
2022-12-24T08:27:03.123Z,10.72
2022-12-24T08:29:32.181Z,10.80
2022-12-24T08:31:59.918Z,10.83
2022-12-24T08:34:28.320Z,10.77
2022-12-24T08:36:55.986Z,10.95
2022-12-24T08:39:23.698Z,10.88
2022-12-24T08:41:51.370Z,10.82
2022-12-24T08:44:19.487Z,10.83
2022-12-24T08:46:48.567Z,10.94
2022-12-24T08:49:16.365Z,10.90
2022-12-24T08:51:44.057Z,10.94
2022-12-24T08:54:11.769Z,10.92
2022-12-24T08:56:39.402Z,11.17
2022-12-24T08:59:07.070Z,11.21
2022-12-24T09:01:34.935Z,11.47
2022-12-24T09:04:04.079Z,11.47
2022-12-24T09:06:32.753Z,11.51
2022-12-24T09:09:00.486Z,11.56
2022-12-24T09:11:28.186Z,11.75
2022-12-24T09:13:56.083Z,11.57
2022-12-24T09:16:23.859Z,11.80
2022-12-24T09:18:51.575Z,11.87
2022-12-24T09:21:20.656Z,12.02
2022-12-24T09:23:49.242Z,12.21
2022-12-24T09:26:18.809Z,12.27
2022-12-24T09:28:47.031Z,12.25
2022-12-24T09:31:15.099Z,12.18
2022-12-24T09:33:44.768Z,12.08
2022-12-24T09:36:12.549Z,11.96
2022-12-24T09:38:41.715Z,11.83
2022-12-24T09:41:14.857Z,11.69
2022-12-24T09:43:48.431Z,11.83
2022-12-24T09:46:24.099Z,11.89
2022-12-24T09:48:56.698Z,11.93
2022-12-24T09:51:30.390Z,11.79
2022-12-24T09:54:04.086Z,11.84
2022-12-24T09:56:35.828Z,11.83
2022-12-24T09:59:05.860Z,11.59
2022-12-24T10:01:35.608Z,11.79
2022-12-24T10:04:05.969Z,11.56
2022-12-24T10:06:41.263Z,11.74
2022-12-24T10:09:18.967Z,11.75
2022-12-24T10:11:53.537Z,11.79
2022-12-24T10:14:34.563Z,11.87
2022-12-24T10:17:19.605Z,11.80
2022-12-24T10:19:53.516Z,11.69
2022-12-24T10:22:27.418Z,11.71
2022-12-24T10:25:04.511Z,11.87
2022-12-24T10:27:39.675Z,11.95
2022-12-24T10:30:17.485Z,12.06
2022-12-24T10:32:46.355Z,12.08
2022-12-24T10:35:22.851Z,12.26
2022-12-24T10:37:52.581Z,12.25
2022-12-24T10:40:31.676Z,12.38
2022-12-24T10:42:59.358Z,12.50
2022-12-24T10:45:40.329Z,12.55
2022-12-24T10:48:12.056Z,12.55
2022-12-24T10:50:43.989Z,12.61
2022-12-24T10:53:19.742Z,12.50
2022-12-24T10:55:49.817Z,12.61
2022-12-24T10:58:20.665Z,12.70
2022-12-24T11:00:52.665Z,12.86
2022-12-24T11:03:26.044Z,12.87
2022-12-24T11:06:05.936Z,13.13
2022-12-24T11:08:34.348Z,12.96
2022-12-24T11:11:05.418Z,12.84
2022-12-24T11:13:38.545Z,12.88
2022-12-24T11:16:11.560Z,13.01
2022-12-24T11:18:51.299Z,13.11
2022-12-24T11:21:25.631Z,13.08
2022-12-24T11:23:57.092Z,13.01
2022-12-24T11:26:29.202Z,12.90
2022-12-24T11:29:22.779Z,12.84
2022-12-24T11:31:52.671Z,12.93
2022-12-24T11:34:27.353Z,12.58
2022-12-24T11:36:57.822Z,12.64
2022-12-24T11:39:26.978Z,12.72
2022-12-24T11:41:56.114Z,12.57
2022-12-24T11:44:27.194Z,12.53
2022-12-24T11:46:57.496Z,12.53
2022-12-24T11:49:27.691Z,12.52
2022-12-24T11:52:25.762Z,12.49
2022-12-24T11:55:16.942Z,12.41
2022-12-24T11:57:53.195Z,12.59
2022-12-24T12:00:21.059Z,12.68
2022-12-24T12:02:52.344Z,12.55
2022-12-24T12:05:23.303Z,12.29
2022-12-24T12:07:54.004Z,12.21
2022-12-24T12:10:25.034Z,12.30
2022-12-24T12:13:00.645Z,12.21
2022-12-24T12:15:33.732Z,11.71
2022-12-24T12:18:08.261Z,12.37
2022-12-24T12:20:40.232Z,12.48
2022-12-24T12:23:17.442Z,12.32
2022-12-24T12:25:51.190Z,12.39
2022-12-24T12:28:27.971Z,12.45
2022-12-24T12:31:04.011Z,12.22
2022-12-24T12:33:39.888Z,12.27
2022-12-24T12:36:11.065Z,12.25
2022-12-24T12:38:39.928Z,12.33
2022-12-24T12:41:27.756Z,12.17
2022-12-24T12:44:12.965Z,11.96
2022-12-24T12:46:56.013Z,12.06
2022-12-24T12:49:37.468Z,11.95
2022-12-24T12:52:13.072Z,12.01
2022-12-24T12:55:07.336Z,12.02
2022-12-24T12:57:39.084Z,12.06
2022-12-24T13:00:11.490Z,12.10
2022-12-24T13:02:57.053Z,12.01
2022-12-24T13:06:09.946Z,12.04
2022-12-24T13:08:54.134Z,11.95
2022-12-24T13:11:42.740Z,12.06
2022-12-24T13:14:35.598Z,12.06
2022-12-24T13:17:32.800Z,12.05
2022-12-24T13:20:17.126Z,12.15
2022-12-24T13:22:50.928Z,12.11
2022-12-24T13:25:24.886Z,12.08
2022-12-24T13:27:52.790Z,11.96
2022-12-24T13:30:36.076Z,11.78
2022-12-24T13:33:05.820Z,11.84
2022-12-24T13:35:38.158Z,11.57
2022-12-24T13:38:43.662Z,11.52
2022-12-24T13:41:54.401Z,11.50
2022-12-24T13:44:25.348Z,11.36
2022-12-24T13:46:59.695Z,11.20
2022-12-24T13:49:33.007Z,11.15
2022-12-24T13:52:26.819Z,11.23
2022-12-24T13:55:08.941Z,11.12
2022-12-24T13:57:40.782Z,10.98
2022-12-24T14:00:29.786Z,10.91
2022-12-24T14:03:01.295Z,10.90
2022-12-24T14:05:35.497Z,10.86
2022-12-24T14:08:06.525Z,10.92
2022-12-24T14:10:39.656Z,10.95
2022-12-24T14:13:10.127Z,10.91
2022-12-24T14:16:06.028Z,10.82
2022-12-24T14:18:39.482Z,10.68
2022-12-24T14:21:17.082Z,10.66
2022-12-24T14:23:55.689Z,10.46
2022-12-24T14:26:25.578Z,10.51
2022-12-24T14:28:57.211Z,10.53
2022-12-24T14:31:25.471Z,10.46
2022-12-24T14:33:53.666Z,10.60
2022-12-24T14:36:25.058Z,10.39
2022-12-24T14:38:53.108Z,10.61
2022-12-24T14:41:32.531Z,10.68
2022-12-24T14:44:10.722Z,10.71
2022-12-24T14:46:44.975Z,10.73
2022-12-24T14:49:23.025Z,10.71
2022-12-24T14:52:01.470Z,10.77
2022-12-24T14:54:35.307Z,10.79
2022-12-24T14:57:21.177Z,10.71
2022-12-24T14:59:51.396Z,10.71
2022-12-24T15:02:43.089Z,10.70
2022-12-24T15:05:14.349Z,10.82
2022-12-24T15:07:47.932Z,10.78
2022-12-24T15:10:30.871Z,10.68
2022-12-24T15:13:02.763Z,10.66
2022-12-24T15:15:31.268Z,10.71
2022-12-24T15:18:00.131Z,10.53
2022-12-24T15:20:29.661Z,10.62
2022-12-24T15:23:00.320Z,10.52
2022-12-24T15:25:30.988Z,10.49
2022-12-24T15:27:59.616Z,10.53
2022-12-24T15:30:32.014Z,10.48
2022-12-24T15:33:00.495Z,10.54
2022-12-24T15:35:33.410Z,10.51
2022-12-24T15:38:04.076Z,10.49
2022-12-24T15:40:33.285Z,10.58
2022-12-24T15:43:01.334Z,10.59
2022-12-24T15:45:31.338Z,10.61
2022-12-24T15:48:01.599Z,10.61
2022-12-24T15:50:32.317Z,10.55
2022-12-24T15:53:21.169Z,10.59
2022-12-24T15:56:02.549Z,10.60
2022-12-24T15:58:32.326Z,10.53
2022-12-24T16:01:28.122Z,10.61
2022-12-24T16:03:59.075Z,10.59
2022-12-24T16:06:28.792Z,10.58
2022-12-24T16:08:58.698Z,10.63
2022-12-24T16:11:34.657Z,10.64
2022-12-24T16:14:08.483Z,10.71
2022-12-24T16:16:39.694Z,10.74
2022-12-24T16:19:08.907Z,10.74
2022-12-24T16:21:38.617Z,10.71
2022-12-24T16:24:16.037Z,10.74
2022-12-24T16:26:43.880Z,10.67
2022-12-24T16:29:12.085Z,10.80
2022-12-24T16:31:45.464Z,10.68
2022-12-24T16:34:15.818Z,10.65
2022-12-24T16:36:45.135Z,10.64
2022-12-24T16:39:24.628Z,10.57
2022-12-24T16:42:10.189Z,10.51
2022-12-24T16:44:38.248Z,10.57
2022-12-24T16:47:07.864Z,10.48
2022-12-24T16:49:38.365Z,10.57
2022-12-24T16:52:06.677Z,10.50
2022-12-24T16:54:35.906Z,10.37
2022-12-24T16:57:03.763Z,10.41
2022-12-24T16:59:32.657Z,10.28
2022-12-24T17:02:00.651Z,10.25
2022-12-24T17:04:28.522Z,10.18
2022-12-24T17:06:56.364Z,10.10
2022-12-24T17:09:24.179Z,9.90
2022-12-24T17:11:53.436Z,9.99
2022-12-24T17:14:21.237Z,10.25
2022-12-24T17:16:49.939Z,10.34
2022-12-24T17:19:18.137Z,10.33
2022-12-24T17:21:46.462Z,10.40
2022-12-24T17:24:14.527Z,10.45
2022-12-24T17:26:43.414Z,10.42
2022-12-24T17:29:12.592Z,10.19
2022-12-24T17:31:42.993Z,10.35
2022-12-24T17:34:11.028Z,10.31
2022-12-24T17:36:39.269Z,10.58
2022-12-24T17:39:07.122Z,10.63
2022-12-24T17:41:34.892Z,10.63
2022-12-24T17:44:04.778Z,10.78
2022-12-24T17:46:34.196Z,10.78
2022-12-24T17:49:02.381Z,10.78
2022-12-24T17:51:31.129Z,10.81
2022-12-24T17:53:58.975Z,10.70
2022-12-24T17:56:27.580Z,10.83
2022-12-24T17:58:55.364Z,10.87
2022-12-24T18:01:25.503Z,10.86
2022-12-24T18:03:54.796Z,10.79
2022-12-24T18:06:22.586Z,10.77
2022-12-24T18:08:50.537Z,10.92
2022-12-24T18:11:20.784Z,10.95
2022-12-24T18:13:49.264Z,10.87
2022-12-24T18:16:18.539Z,10.44
2022-12-24T18:18:46.488Z,10.88
2022-12-24T18:21:17.140Z,10.80
2022-12-24T18:23:46.737Z,10.82
2022-12-24T18:26:15.555Z,10.83
2022-12-24T18:28:43.609Z,10.77
2022-12-24T18:31:14.125Z,10.77
2022-12-24T18:33:42.558Z,10.71
2022-12-24T18:36:10.883Z,10.53
2022-12-24T18:38:40.559Z,10.68
2022-12-24T18:41:10.622Z,10.60
2022-12-24T18:43:38.687Z,10.48
2022-12-24T18:46:09.934Z,10.56
2022-12-24T18:48:37.847Z,10.53
2022-12-24T18:51:06.723Z,10.38
2022-12-24T18:53:35.371Z,10.38
2022-12-24T18:56:06.128Z,10.52
2022-12-24T18:58:33.946Z,10.41
2022-12-24T19:01:01.813Z,10.20
2022-12-24T19:03:29.519Z,10.50
2022-12-24T19:06:01.654Z,10.62
2022-12-24T19:08:56.480Z,10.62
2022-12-24T19:11:18.732Z,10.57
2022-12-24T19:13:47.836Z,10.59
2022-12-24T19:16:16.063Z,10.66
2022-12-24T19:18:44.373Z,10.70
2022-12-24T19:21:14.191Z,10.77
2022-12-24T19:23:42.056Z,10.82
2022-12-24T19:26:10.949Z,10.86
2022-12-24T19:28:40.330Z,10.86
2022-12-24T19:31:10.457Z,10.62
2022-12-24T19:33:42.445Z,10.77
2022-12-24T19:36:13.371Z,10.75
2022-12-24T19:38:41.822Z,10.69
2022-12-24T19:41:10.773Z,10.87
2022-12-24T19:43:41.405Z,10.94
2022-12-24T19:46:10.274Z,10.95
2022-12-24T19:48:38.490Z,10.94
2022-12-24T19:51:08.824Z,10.89
2022-12-24T19:53:37.137Z,10.92
2022-12-24T19:56:05.794Z,10.83
2022-12-24T19:58:33.613Z,10.86
2022-12-24T20:01:14.443Z,10.78
2022-12-24T20:03:43.460Z,10.79
2022-12-24T20:06:11.298Z,10.86
2022-12-24T20:08:40.113Z,10.76
2022-12-24T20:11:10.151Z,10.85
2022-12-24T20:13:39.340Z,10.83
2022-12-24T20:16:11.299Z,10.90
2022-12-24T20:18:39.101Z,10.76
2022-12-24T20:21:10.234Z,10.51
2022-12-24T20:23:38.553Z,10.75
2022-12-24T20:26:07.619Z,10.75
2022-12-24T20:28:37.572Z,10.65
2022-12-24T20:31:12.751Z,10.58
2022-12-24T20:33:40.685Z,10.62
2022-12-24T20:36:08.643Z,10.53
2022-12-24T20:38:37.459Z,10.49
2022-12-24T20:41:06.479Z,10.49
2022-12-24T20:43:38.401Z,10.53
2022-12-24T20:46:11.518Z,10.00
2022-12-24T20:48:41.522Z,10.44
2022-12-24T20:51:10.674Z,10.40
2022-12-24T20:53:39.028Z,10.26
2022-12-24T20:56:07.600Z,10.35
2022-12-24T20:58:35.666Z,10.35
2022-12-24T21:01:11.371Z,10.33
2022-12-24T21:04:04.349Z,10.18
2022-12-24T21:06:52.636Z,10.17
2022-12-24T21:09:41.154Z,10.17
2022-12-24T21:12:46.609Z,10.03
2022-12-24T21:15:36.339Z,10.10
2022-12-24T21:18:25.649Z,10.14
2022-12-24T21:21:13.677Z,10.22
2022-12-24T21:24:01.871Z,10.16
2022-12-24T21:26:49.794Z,10.34
2022-12-24T21:29:37.794Z,10.47
2022-12-24T21:32:25.932Z,10.44
2022-12-24T21:35:15.617Z,10.56
2022-12-24T21:38:03.625Z,10.47
2022-12-24T21:40:58.970Z,10.40
2022-12-24T21:43:47.396Z,10.47
2022-12-24T21:46:35.437Z,10.52
2022-12-24T21:49:41.020Z,10.47
2022-12-24T21:52:30.802Z,10.37
2022-12-24T21:55:17.852Z,10.30
2022-12-24T21:58:05.834Z,10.41
2022-12-24T22:00:53.844Z,10.35
2022-12-24T22:03:42.046Z,10.29
2022-12-24T22:06:48.523Z,10.11
2022-12-24T22:09:55.933Z,10.04
2022-12-24T22:12:43.882Z,9.85
2022-12-24T22:15:31.851Z,9.80
2022-12-24T22:18:21.912Z,9.66
2022-12-24T22:21:09.828Z,9.94
2022-12-24T22:23:57.808Z,10.03
2022-12-24T22:26:47.142Z,10.16
2022-12-24T22:29:35.309Z,10.29
2022-12-24T22:32:23.612Z,10.22
2022-12-24T22:35:11.657Z,10.21
2022-12-24T22:38:00.576Z,9.86
2022-12-24T22:40:49.344Z,9.98
2022-12-24T22:43:38.792Z,10.01
2022-12-24T22:46:26.969Z,10.07
2022-12-24T22:49:15.243Z,10.18
2022-12-24T22:52:03.373Z,10.12
2022-12-24T22:54:51.475Z,10.28
2022-12-24T22:57:39.446Z,10.09
2022-12-24T23:00:43.443Z,10.18
2022-12-24T23:03:31.817Z,10.05
2022-12-24T23:06:19.919Z,10.16
2022-12-24T23:09:09.931Z,10.14
2022-12-24T23:11:58.004Z,10.14
2022-12-24T23:14:57.271Z,10.25
2022-12-24T23:17:49.320Z,10.26
2022-12-24T23:20:39.182Z,10.28
2022-12-24T23:23:30.696Z,10.43
2022-12-24T23:26:23.015Z,10.35
2022-12-24T23:29:10.989Z,10.34
2022-12-24T23:31:59.303Z,10.32
2022-12-24T23:34:48.914Z,10.47
2022-12-24T23:37:36.860Z,10.55
2022-12-24T23:40:25.045Z,10.56
2022-12-24T23:43:13.253Z,10.57
2022-12-24T23:46:01.540Z,10.63
2022-12-24T23:48:53.623Z,10.62
2022-12-24T23:51:43.070Z,10.67
2022-12-24T23:54:31.031Z,10.71
2022-12-24T23:57:19.017Z,10.67
